Time;durP1;ratioP1;P1;durP2;ratioP2;P2;SDS_P1;SDS_P2;PMS_P1;PMS_P2;Temp;Humidity;BMP_temperature;BMP_pressure;BME280_temperature;BME280_humidity;BME280_pressure;Samples;Min_cycle;Max_cycle;Signal;HPM_P1;HPM_P2
2023/08/05 00:00:24;;;;;;;;;;;23.30;59.70;;;;;;1563310;74;744;-68
2023/08/05 00:02:26;;;;;;;;;;;23.20;59.70;;;;;;1572631;74;1937;-68
2023/08/05 00:04:28;;;;;;;;;;;23.20;59.70;;;;;;1565706;74;1679;-67
2023/08/05 00:06:29;;;;;;;;;;;23.30;59.70;;;;;;1563212;74;728;-68
2023/08/05 00:08:31;;;;;;;;;;;23.20;59.80;;;;;;1552399;74;802;-67
2023/08/05 00:10:33;;;;;;;;;;;23.30;59.80;;;;;;1563318;74;695;-67
2023/08/05 00:12:35;;;;;;;;;;;23.30;59.80;;;;;;1568432;74;670;-68
2023/08/05 00:14:37;;;;;;;;;;;23.30;59.80;;;;;;1562576;74;1119;-68
2023/08/05 00:16:39;;;;;;;;;;;23.20;59.70;;;;;;1564530;74;760;-67
2023/08/05 00:18:41;;;;;;;;;;;23.20;59.70;;;;;;1567866;74;1691;-68
2023/08/05 00:20:43;;;;;;;;;;;23.30;59.70;;;;;;1563975;74;793;-68
2023/08/05 00:22:44;;;;;;;;;;;23.30;59.70;;;;;;1564721;74;1939;-67
2023/08/05 00:24:46;;;;;;;;;;;23.30;59.80;;;;;;1550578;74;1119;-68
2023/08/05 00:26:48;;;;;;;;;;;23.30;59.60;;;;;;1564652;74;682;-66
2023/08/05 00:28:50;;;;;;;;;;;23.30;59.30;;;;;;1565829;74;795;-66
2023/08/05 00:30:52;;;;;;;;;;;23.30;59.70;;;;;;1560849;74;816;-68
2023/08/05 00:32:54;;;;;;;;;;;23.30;59.60;;;;;;1575808;74;1485;-67
2023/08/05 00:34:56;;;;;;;;;;;23.30;59.70;;;;;;1557362;74;1134;-67
2023/08/05 00:36:58;;;;;;;;;;;23.30;59.60;;;;;;1560577;74;731;-69
2023/08/05 00:39:00;;;;;;;;;;;23.20;59.50;;;;;;1559551;74;797;-67
2023/08/05 00:41:03;;;;;;;;;;;23.30;59.60;;;;;;1561218;74;799;-68
2023/08/05 00:43:05;;;;;;;;;;;23.30;59.70;;;;;;1561171;74;1939;-68
2023/08/05 00:45:07;;;;;;;;;;;23.30;59.60;;;;;;1569410;74;1570;-67
2023/08/05 00:47:09;;;;;;;;;;;23.30;59.70;;;;;;1566602;74;769;-68
2023/08/05 00:49:11;;;;;;;;;;;23.30;59.70;;;;;;1564502;74;726;-68
2023/08/05 00:51:13;;;;;;;;;;;23.30;59.60;;;;;;1571422;74;801;-68
2023/08/05 00:53:16;;;;;;;;;;;23.30;59.90;;;;;;1566457;74;825;-68
2023/08/05 00:55:19;;;;;;;;;;;23.30;60.10;;;;;;1549769;74;1183;-68
2023/08/05 00:57:21;;;;;;;;;;;23.30;59.80;;;;;;1559601;74;817;-68
2023/08/05 00:59:23;;;;;;;;;;;23.20;59.60;;;;;;1561411;74;1552;-68
2023/08/05 01:01:25;;;;;;;;;;;23.30;60.00;;;;;;1558913;74;711;-68
2023/08/05 01:03:27;;;;;;;;;;;23.30;59.90;;;;;;1565213;74;1932;-68
2023/08/05 01:05:29;;;;;;;;;;;23.30;60.00;;;;;;1574930;73;1136;-68
2023/08/05 01:07:32;;;;;;;;;;;23.30;59.70;;;;;;1558029;75;797;-67
2023/08/05 01:09:34;;;;;;;;;;;23.20;59.50;;;;;;1588402;73;739;-68
2023/08/05 01:11:36;;;;;;;;;;;23.30;59.70;;;;;;1573794;74;798;-68
2023/08/05 01:13:40;;;;;;;;;;;23.30;59.40;;;;;;1588802;73;1496;-68
2023/08/05 01:15:42;;;;;;;;;;;23.30;59.70;;;;;;1566266;74;1139;-68
2023/08/05 01:17:44;;;;;;;;;;;23.30;59.70;;;;;;1558357;74;717;-69
2023/08/05 01:19:46;;;;;;;;;;;23.30;59.40;;;;;;1557816;74;717;-68
2023/08/05 01:21:49;;;;;;;;;;;23.30;58.90;;;;;;1557411;74;1938;-68
2023/08/05 01:23:53;;;;;;;;;;;23.30;59.10;;;;;;1578195;74;837;-69
2023/08/05 01:25:55;;;;;;;;;;;23.30;59.50;;;;;;1569684;74;1679;-68
2023/08/05 01:27:57;;;;;;;;;;;23.30;59.50;;;;;;1557980;74;1561;-69
2023/08/05 01:29:59;;;;;;;;;;;23.30;59.00;;;;;;1561237;74;780;-67
2023/08/05 01:32:00;;;;;;;;;;;23.30;58.60;;;;;;1567496;74;784;-67
2023/08/05 01:34:02;;;;;;;;;;;23.30;58.90;;;;;;1568915;74;807;-65
2023/08/05 01:36:04;;;;;;;;;;;23.30;58.90;;;;;;1563945;74;1114;-68
2023/08/05 01:38:06;;;;;;;;;;;23.30;59.40;;;;;;1576262;74;725;-68
2023/08/05 01:40:08;;;;;;;;;;;23.20;58.50;;;;;;1554396;74;794;-67
2023/08/05 01:42:11;;;;;;;;;;;23.30;58.60;;;;;;1562683;74;1928;-67
2023/08/05 01:44:12;;;;;;;;;;;23.30;58.90;;;;;;1565844;74;729;-67
2023/08/05 01:46:14;;;;;;;;;;;23.30;58.50;;;;;;1562615;74;826;-66
2023/08/05 01:48:16;;;;;;;;;;;23.30;59.40;;;;;;1559322;74;768;-68
2023/08/05 01:50:18;;;;;;;;;;;23.30;59.30;;;;;;1560242;74;700;-68
2023/08/05 01:52:20;;;;;;;;;;;23.30;59.40;;;;;;1559477;74;789;-67
2023/08/05 01:54:22;;;;;;;;;;;23.30;58.90;;;;;;1562486;74;1173;-67
2023/08/05 01:56:24;;;;;;;;;;;23.30;59.30;;;;;;1558276;74;1539;-68
2023/08/05 01:58:26;;;;;;;;;;;23.20;58.80;;;;;;1564326;74;791;-67
2023/08/05 02:00:27;;;;;;;;;;;23.20;59.00;;;;;;1560470;74;745;-68
2023/08/05 02:02:29;;;;;;;;;;;23.30;58.70;;;;;;1573925;74;1923;-68
2023/08/05 02:04:31;;;;;;;;;;;23.30;59.30;;;;;;1568248;74;1152;-67
2023/08/05 02:06:33;;;;;;;;;;;23.30;58.90;;;;;;1558378;74;776;-68
2023/08/05 02:08:35;;;;;;;;;;;23.30;58.90;;;;;;1562561;74;775;-68
2023/08/05 02:10:37;;;;;;;;;;;23.30;58.80;;;;;;1560872;74;1561;-68
2023/08/05 02:12:39;;;;;;;;;;;23.30;58.40;;;;;;1567434;74;814;-68
2023/08/05 02:14:41;;;;;;;;;;;23.30;58.80;;;;;;1561159;74;1142;-68
2023/08/05 02:16:43;;;;;;;;;;;23.30;59.30;;;;;;1554836;74;759;-67
2023/08/05 02:18:45;;;;;;;;;;;23.30;59.00;;;;;;1576717;74;800;-68
2023/08/05 02:20:47;;;;;;;;;;;23.30;59.40;;;;;;1557921;74;1084;-68
2023/08/05 02:22:49;;;;;;;;;;;23.30;59.40;;;;;;1559013;74;1939;-68
2023/08/05 02:24:51;;;;;;;;;;;23.30;59.10;;;;;;1563110;74;1500;-68
2023/08/05 02:26:53;;;;;;;;;;;23.20;59.40;;;;;;1570048;74;778;-66
2023/08/05 02:28:55;;;;;;;;;;;23.30;59.30;;;;;;1581021;74;807;-67
2023/08/05 02:30:57;;;;;;;;;;;23.30;59.40;;;;;;1573114;74;793;-67
2023/08/05 02:32:59;;;;;;;;;;;23.30;59.10;;;;;;1563351;74;701;-68
2023/08/05 02:35:01;;;;;;;;;;;23.30;59.30;;;;;;1551429;74;1120;-67
2023/08/05 02:37:02;;;;;;;;;;;23.30;59.10;;;;;;1547080;74;815;-67
2023/08/05 02:39:04;;;;;;;;;;;23.30;59.50;;;;;;1559523;74;1597;-67
2023/08/05 02:41:07;;;;;;;;;;;23.30;59.00;;;;;;1567624;74;686;-67
2023/08/05 02:43:09;;;;;;;;;;;23.30;59.30;;;;;;1561286;74;1930;-67
2023/08/05 02:45:11;;;;;;;;;;;23.30;59.40;;;;;;1576250;74;1171;-68
2023/08/05 02:47:13;;;;;;;;;;;23.30;59.50;;;;;;1561487;74;765;-68
2023/08/05 02:49:15;;;;;;;;;;;23.30;59.40;;;;;;1575379;74;737;-69
2023/08/05 02:51:17;;;;;;;;;;;23.30;59.30;;;;;;1562283;74;805;-68
2023/08/05 02:53:19;;;;;;;;;;;23.30;59.50;;;;;;1560165;74;1580;-68
2023/08/05 02:55:21;;;;;;;;;;;23.30;59.10;;;;;;1557380;74;1164;-68
2023/08/05 02:57:23;;;;;;;;;;;23.30;59.50;;;;;;1553478;74;687;-68
2023/08/05 02:59:25;;;;;;;;;;;23.30;59.30;;;;;;1567656;74;803;-68
2023/08/05 03:01:27;;;;;;;;;;;23.30;59.40;;;;;;1556796;74;792;-68
2023/08/05 03:03:29;;;;;;;;;;;23.30;59.30;;;;;;1561236;74;1935;-68
2023/08/05 03:05:31;;;;;;;;;;;23.30;59.50;;;;;;1563655;74;1133;-68
2023/08/05 03:07:33;;;;;;;;;;;23.30;59.50;;;;;;1566878;74;1430;-68
2023/08/05 03:09:34;;;;;;;;;;;23.30;59.50;;;;;;1566389;74;793;-68
2023/08/05 03:11:36;;;;;;;;;;;23.30;59.50;;;;;;1571575;74;778;-68
2023/08/05 03:13:38;;;;;;;;;;;23.30;59.50;;;;;;1566901;74;788;-68
2023/08/05 03:15:40;;;;;;;;;;;23.30;59.50;;;;;;1572795;74;1176;-67
2023/08/05 03:17:42;;;;;;;;;;;23.30;59.40;;;;;;1570473;74;720;-69
2023/08/05 03:19:44;;;;;;;;;;;23.30;59.40;;;;;;1569260;74;739;-69
2023/08/05 03:21:46;;;;;;;;;;;23.30;59.40;;;;;;1572245;74;751;-67
2023/08/05 03:23:47;;;;;;;;;;;23.30;59.40;;;;;;1578810;74;1938;-69
2023/08/05 03:25:49;;;;;;;;;;;23.30;59.40;;;;;;1574220;74;1123;-68
2023/08/05 03:27:51;;;;;;;;;;;23.30;59.30;;;;;;1570552;74;768;-69
2023/08/05 03:29:53;;;;;;;;;;;23.30;59.30;;;;;;1562206;74;725;-69
2023/08/05 03:31:55;;;;;;;;;;;23.30;59.30;;;;;;1563969;74;695;-66
2023/08/05 03:33:57;;;;;;;;;;;23.30;59.30;;;;;;1569998;74;1633;-67
2023/08/05 03:35:59;;;;;;;;;;;23.30;59.10;;;;;;1578382;74;1122;-68
2023/08/05 03:38:01;;;;;;;;;;;23.20;59.20;;;;;;1569424;74;816;-69
2023/08/05 03:40:03;;;;;;;;;;;23.30;59.30;;;;;;1523939;76;784;-69
2023/08/05 03:42:05;;;;;;;;;;;23.30;59.30;;;;;;1550075;74;676;-66
2023/08/05 03:44:07;;;;;;;;;;;23.30;59.30;;;;;;1563939;74;1927;-69
2023/08/05 03:46:09;;;;;;;;;;;23.30;59.30;;;;;;1555667;74;1086;-67
2023/08/05 03:48:11;;;;;;;;;;;23.20;59.30;;;;;;1560683;74;1531;-68
2023/08/05 03:50:13;;;;;;;;;;;23.30;59.30;;;;;;1577450;74;790;-69
2023/08/05 03:52:15;;;;;;;;;;;23.30;59.30;;;;;;1563379;74;704;-69
2023/08/05 03:54:16;;;;;;;;;;;23.30;59.40;;;;;;1562337;74;1164;-68
2023/08/05 03:56:22;;;;;;;;;;;23.30;59.30;;;;;;1584663;73;665;-68
2023/08/05 03:58:23;;;;;;;;;;;23.30;59.00;;;;;;1565941;75;1798;-68
2023/08/05 04:00:25;;;;;;;;;;;23.30;59.40;;;;;;1562547;75;772;-69
2023/08/05 04:02:27;;;;;;;;;;;23.30;59.00;;;;;;1568161;74;1534;-67
2023/08/05 04:04:29;;;;;;;;;;;23.30;58.50;;;;;;1563194;74;1916;-66
2023/08/05 04:06:30;;;;;;;;;;;23.30;56.20;;;;;;1566008;74;798;-69
2023/08/05 04:08:32;;;;;;;;;;;23.30;56.80;;;;;;1560071;74;721;-65
2023/08/05 04:10:35;;;;;;;;;;;23.20;56.40;;;;;;1555147;74;696;-66
2023/08/05 04:12:38;;;;;;;;;;;23.30;55.80;;;;;;1559517;74;792;-66
2023/08/05 04:14:40;;;;;;;;;;;23.30;55.30;;;;;;1558275;74;1260;-65
2023/08/05 04:16:42;;;;;;;;;;;23.20;55.20;;;;;;1574248;73;1520;-66
2023/08/05 04:18:47;;;;;;;;;;;23.20;55.10;;;;;;1554095;74;740;-66
2023/08/05 04:20:48;;;;;;;;;;;23.20;54.80;;;;;;1555427;74;1463;-67
2023/08/05 04:22:50;;;;;;;;;;;23.20;56.00;;;;;;1556175;74;1897;-65
2023/08/05 04:24:53;;;;;;;;;;;23.20;56.50;;;;;;1558724;74;1145;-66
2023/08/05 04:26:55;;;;;;;;;;;23.20;56.30;;;;;;1559154;74;715;-67
2023/08/05 04:28:57;;;;;;;;;;;23.20;55.80;;;;;;1562450;74;802;-67
2023/08/05 04:30:59;;;;;;;;;;;23.20;55.70;;;;;;1559646;74;1400;-66
2023/08/05 04:33:00;;;;;;;;;;;23.20;55.30;;;;;;1551846;74;681;-70
2023/08/05 04:35:03;;;;;;;;;;;23.20;55.00;;;;;;1552698;74;1145;-67
2023/08/05 04:37:17;;;;;;;;;;;23.20;55.50;;;;;;1560825;74;625;-65
2023/08/05 04:39:19;;;;;;;;;;;23.20;54.70;;;;;;1565630;74;772;-65
2023/08/05 04:41:21;;;;;;;;;;;23.00;54.70;;;;;;1554957;74;820;-66
2023/08/05 04:43:23;;;;;;;;;;;22.90;54.50;;;;;;1565067;74;1927;-66
2023/08/05 04:45:25;;;;;;;;;;;22.70;54.70;;;;;;1565521;74;1438;-67
2023/08/05 04:47:27;;;;;;;;;;;22.60;55.00;;;;;;1557549;74;790;-70
2023/08/05 04:49:29;;;;;;;;;;;22.50;55.50;;;;;;1555716;74;806;-67
2023/08/05 04:51:30;;;;;;;;;;;22.50;55.90;;;;;;1559447;74;755;-67
2023/08/05 04:53:32;;;;;;;;;;;22.60;56.30;;;;;;1570004;74;771;-66
2023/08/05 04:55:34;;;;;;;;;;;22.60;56.40;;;;;;1567633;74;1157;-65
2023/08/05 04:57:36;;;;;;;;;;;22.70;56.20;;;;;;1559362;74;671;-67
2023/08/05 04:59:38;;;;;;;;;;;22.60;56.00;;;;;;1570149;74;1577;-67
2023/08/05 05:01:40;;;;;;;;;;;22.70;55.60;;;;;;1571840;74;1060;-67
2023/08/05 05:03:42;;;;;;;;;;;22.70;55.40;;;;;;1564489;74;1941;-67
2023/08/05 05:05:44;;;;;;;;;;;22.70;55.20;;;;;;1563264;74;1097;-67
2023/08/05 05:07:46;;;;;;;;;;;22.70;55.10;;;;;;1563241;74;797;-66
2023/08/05 05:09:48;;;;;;;;;;;22.70;55.00;;;;;;1567300;74;845;-67
2023/08/05 05:11:50;;;;;;;;;;;22.70;54.90;;;;;;1568354;74;716;-66
2023/08/05 05:13:52;;;;;;;;;;;22.70;55.00;;;;;;1552370;74;1258;-67
2023/08/05 05:15:54;;;;;;;;;;;22.70;54.90;;;;;;1578359;74;1102;-65
2023/08/05 05:17:55;;;;;;;;;;;22.70;54.90;;;;;;1560386;74;683;-66
2023/08/05 05:19:57;;;;;;;;;;;22.70;54.80;;;;;;1567545;74;718;-67
2023/08/05 05:21:59;;;;;;;;;;;22.70;54.70;;;;;;1578188;74;650;-67
2023/08/05 05:24:01;;;;;;;;;;;22.70;54.60;;;;;;1579202;74;1944;-66
2023/08/05 05:26:03;;;;;;;;;;;22.70;54.60;;;;;;1569847;74;1131;-66
2023/08/05 05:28:05;;;;;;;;;;;22.60;54.50;;;;;;1566990;74;1615;-65
2023/08/05 05:30:07;;;;;;;;;;;22.70;54.50;;;;;;1570189;74;667;-66
2023/08/05 05:32:09;;;;;;;;;;;22.70;54.50;;;;;;1563400;74;759;-66
2023/08/05 05:34:11;;;;;;;;;;;22.70;54.50;;;;;;1573644;74;789;-66
2023/08/05 05:36:13;;;;;;;;;;;22.60;54.40;;;;;;1579488;74;1134;-66
2023/08/05 05:38:14;;;;;;;;;;;22.70;54.40;;;;;;1564369;74;709;-66
2023/08/05 05:40:16;;;;;;;;;;;22.70;54.40;;;;;;1565965;74;739;-67
2023/08/05 05:42:18;;;;;;;;;;;22.60;54.20;;;;;;1570237;74;1669;-67
2023/08/05 05:44:20;;;;;;;;;;;22.70;54.40;;;;;;1582163;74;1940;-66
2023/08/05 05:46:22;;;;;;;;;;;22.70;54.40;;;;;;1572686;74;853;-66
2023/08/05 05:48:24;;;;;;;;;;;22.60;54.30;;;;;;1556357;74;717;-66
2023/08/05 05:50:26;;;;;;;;;;;22.60;54.30;;;;;;1566718;74;719;-65
2023/08/05 05:52:28;;;;;;;;;;;22.60;54.30;;;;;;1563270;74;653;-64
2023/08/05 05:54:29;;;;;;;;;;;22.70;54.40;;;;;;1561728;74;1576;-65
2023/08/05 05:56:32;;;;;;;;;;;22.60;54.30;;;;;;1579327;74;782;-66
2023/08/05 05:58:35;;;;;;;;;;;22.60;54.30;;;;;;1569880;74;776;-67
2023/08/05 06:00:42;;;;;;;;;;;22.60;54.20;;;;;;1575414;74;737;-67
2023/08/05 06:02:44;;;;;;;;;;;22.60;54.20;;;;;;1557834;74;692;-66
2023/08/05 06:04:47;;;;;;;;;;;22.60;54.20;;;;;;1573387;74;1938;-64
2023/08/05 06:06:49;;;;;;;;;;;22.60;54.20;;;;;;1564171;74;700;-65
2023/08/05 06:08:51;;;;;;;;;;;22.60;54.20;;;;;;1572350;74;1547;-66
2023/08/05 06:10:53;;;;;;;;;;;22.60;54.20;;;;;;1559006;74;774;-66
2023/08/05 06:12:56;;;;;;;;;;;22.60;54.20;;;;;;1570654;74;786;-66
2023/08/05 06:14:59;;;;;;;;;;;22.60;54.20;;;;;;1587381;74;1144;-66
2023/08/05 06:17:01;;;;;;;;;;;22.60;54.20;;;;;;1568670;74;746;-66
2023/08/05 06:19:03;;;;;;;;;;;22.60;54.20;;;;;;1559158;74;760;-65
2023/08/05 06:21:05;;;;;;;;;;;22.50;54.20;;;;;;1567582;74;693;-65
2023/08/05 06:23:07;;;;;;;;;;;22.60;54.10;;;;;;1575299;74;1384;-65
2023/08/05 06:25:09;;;;;;;;;;;22.60;54.10;;;;;;1567896;74;1966;-66
2023/08/05 06:27:11;;;;;;;;;;;22.60;54.10;;;;;;1564060;74;742;-67
2023/08/05 06:29:13;;;;;;;;;;;22.60;54.20;;;;;;1575802;74;848;-66
2023/08/05 06:31:14;;;;;;;;;;;22.60;54.20;;;;;;1561405;74;635;-66
2023/08/05 06:33:16;;;;;;;;;;;22.60;54.20;;;;;;1570643;74;745;-67
2023/08/05 06:35:18;;;;;;;;;;;22.50;54.20;;;;;;1568694;74;1151;-67
2023/08/05 06:37:21;;;;;;;;;;;22.50;54.20;;;;;;1575387;74;1468;-66
2023/08/05 06:39:23;;;;;;;;;;;22.60;54.20;;;;;;1571326;74;749;-66
2023/08/05 06:41:25;;;;;;;;;;;22.60;54.20;;;;;;1571767;74;787;-66
2023/08/05 06:43:27;;;;;;;;;;;22.50;54.20;;;;;;1585016;74;636;-67
2023/08/05 06:45:31;;;;;;;;;;;22.50;54.20;;;;;;1561342;74;1942;-65
2023/08/05 06:47:33;;;;;;;;;;;22.50;54.20;;;;;;1579732;74;664;-66
2023/08/05 06:49:35;;;;;;;;;;;22.50;54.20;;;;;;1570923;74;781;-67
2023/08/05 06:51:37;;;;;;;;;;;22.50;54.20;;;;;;1570440;74;1501;-67
2023/08/05 06:53:41;;;;;;;;;;;22.60;54.10;;;;;;1572241;74;761;-65
2023/08/05 06:55:43;;;;;;;;;;;22.60;54.20;;;;;;1570219;74;1166;-67
2023/08/05 06:57:48;;;;;;;;;;;22.60;54.20;;;;;;1581227;74;603;-67
2023/08/05 06:59:48;;;;;;;;;;;22.50;54.10;;;;;;1573131;74;1661;-66
2023/08/05 07:01:50;;;;;;;;;;;22.60;54.20;;;;;;1574062;74;797;-67
2023/08/05 07:03:52;;;;;;;;;;;22.50;54.20;;;;;;1563043;74;1926;-65
2023/08/05 07:05:55;;;;;;;;;;;22.50;54.20;;;;;;1575409;74;1634;-67
2023/08/05 07:07:57;;;;;;;;;;;22.50;54.20;;;;;;1569280;74;745;-65
2023/08/05 07:10:02;;;;;;;;;;;22.50;54.20;;;;;;1575556;74;717;-66
2023/08/05 07:12:02;;;;;;;;;;;22.50;54.20;;;;;;1582750;74;1578;-66
2023/08/05 07:14:04;;;;;;;;;;;22.60;54.20;;;;;;1555910;74;757;-65
2023/08/05 07:16:07;;;;;;;;;;;22.50;54.20;;;;;;1559824;74;1110;-65
2023/08/05 07:18:09;;;;;;;;;;;22.50;54.20;;;;;;1582212;74;689;-66
2023/08/05 07:20:11;;;;;;;;;;;22.50;54.20;;;;;;1565486;74;1536;-65
2023/08/05 07:22:13;;;;;;;;;;;22.60;54.30;;;;;;1572291;74;713;-67
2023/08/05 07:24:15;;;;;;;;;;;22.50;54.20;;;;;;1579482;74;1955;-67
2023/08/05 07:26:17;;;;;;;;;;;22.50;54.30;;;;;;1590760;74;741;-66
2023/08/05 07:28:19;;;;;;;;;;;22.50;54.30;;;;;;1573358;74;622;-67
2023/08/05 07:30:20;;;;;;;;;;;22.50;54.30;;;;;;1567743;74;784;-66
2023/08/05 07:32:22;;;;;;;;;;;22.50;54.30;;;;;;1577265;74;814;-67
2023/08/05 07:34:30;;;;;;;;;;;22.50;54.30;;;;;;1563279;74;1688;-67
2023/08/05 07:36:28;;;;;;;;;;;22.50;54.40;;;;;;1568426;74;1615;-66
2023/08/05 07:38:34;;;;;;;;;;;22.50;54.40;;;;;;1571369;74;803;-65
2023/08/05 07:40:34;;;;;;;;;;;22.50;54.40;;;;;;1578989;74;1592;-67
2023/08/05 07:42:36;;;;;;;;;;;22.50;54.40;;;;;;1565185;74;755;-67
2023/08/05 07:44:40;;;;;;;;;;;22.50;54.40;;;;;;1574594;74;1932;-66
2023/08/05 07:46:41;;;;;;;;;;;22.50;54.40;;;;;;1570983;74;1392;-66
2023/08/05 07:48:46;;;;;;;;;;;22.50;54.40;;;;;;1566192;74;1438;-66
2023/08/05 07:50:47;;;;;;;;;;;22.50;54.50;;;;;;1565142;74;1649;-65
2023/08/05 07:52:50;;;;;;;;;;;22.50;54.50;;;;;;1570731;74;800;-67
2023/08/05 07:54:52;;;;;;;;;;;22.50;54.40;;;;;;1573927;74;1152;-67
2023/08/05 07:56:54;;;;;;;;;;;22.50;54.40;;;;;;1562488;74;700;-67
2023/08/05 07:58:56;;;;;;;;;;;22.50;54.40;;;;;;1583954;74;804;-66
2023/08/05 08:00:59;;;;;;;;;;;22.50;54.40;;;;;;1574472;74;690;-67
2023/08/05 08:03:00;;;;;;;;;;;22.50;54.40;;;;;;1569375;74;1515;-66
2023/08/05 08:05:05;;;;;;;;;;;22.50;54.40;;;;;;1567069;74;1952;-66
2023/08/05 08:07:08;;;;;;;;;;;22.50;54.30;;;;;;1555217;74;1607;-66
2023/08/05 08:09:10;;;;;;;;;;;22.50;54.30;;;;;;1571870;74;583;-67
2023/08/05 08:11:12;;;;;;;;;;;22.50;54.40;;;;;;1569121;74;728;-67
2023/08/05 08:13:14;;;;;;;;;;;22.50;54.20;;;;;;1561342;74;816;-67
2023/08/05 08:15:16;;;;;;;;;;;22.50;54.30;;;;;;1586987;74;1469;-67
2023/08/05 08:17:18;;;;;;;;;;;22.50;54.30;;;;;;1577226;73;743;-67
2023/08/05 08:19:21;;;;;;;;;;;22.50;54.20;;;;;;1554781;75;777;-67
2023/08/05 08:21:23;;;;;;;;;;;22.50;54.20;;;;;;1554770;75;767;-65
2023/08/05 08:23:25;;;;;;;;;;;22.40;54.10;;;;;;1555375;75;798;-65
2023/08/05 08:25:26;;;;;;;;;;;22.50;54.20;;;;;;1552473;75;1905;-66
2023/08/05 08:27:28;;;;;;;;;;;22.40;54.20;;;;;;1558493;75;805;-67
2023/08/05 08:29:30;;;;;;;;;;;22.50;54.30;;;;;;1582309;73;1566;-67
2023/08/05 08:31:33;;;;;;;;;;;22.50;54.30;;;;;;1562468;75;731;-66
2023/08/05 08:33:35;;;;;;;;;;;22.50;54.30;;;;;;1569513;74;777;-67
2023/08/05 08:35:37;;;;;;;;;;;22.50;54.20;;;;;;1573574;74;1139;-67
2023/08/05 08:37:39;;;;;;;;;;;22.50;54.20;;;;;;1576712;74;785;-67
2023/08/05 08:39:41;;;;;;;;;;;22.50;54.20;;;;;;1569921;74;752;-65
2023/08/05 08:41:43;;;;;;;;;;;22.50;54.30;;;;;;1566591;74;784;-67
2023/08/05 08:43:45;;;;;;;;;;;22.50;54.40;;;;;;1552123;74;1569;-66
2023/08/05 08:45:48;;;;;;;;;;;22.50;54.40;;;;;;1560359;74;1932;-67
2023/08/05 08:47:49;;;;;;;;;;;22.50;54.40;;;;;;1554759;74;704;-66
2023/08/05 08:49:51;;;;;;;;;;;22.50;54.40;;;;;;1567317;74;730;-67
2023/08/05 08:51:53;;;;;;;;;;;22.60;54.40;;;;;;1563676;74;745;-66
2023/08/05 08:53:56;;;;;;;;;;;22.60;54.40;;;;;;1571101;74;785;-67
2023/08/05 08:55:58;;;;;;;;;;;22.60;54.20;;;;;;1572229;74;1156;-65
2023/08/05 08:57:59;;;;;;;;;;;22.60;54.20;;;;;;1584935;74;1309;-67
2023/08/05 09:00:01;;;;;;;;;;;22.50;54.20;;;;;;1563869;74;793;-67
2023/08/05 09:02:03;;;;;;;;;;;22.60;54.10;;;;;;1588164;74;794;-65
2023/08/05 09:04:05;;;;;;;;;;;22.60;54.20;;;;;;1555855;74;784;-65
2023/08/05 09:06:07;;;;;;;;;;;22.50;54.20;;;;;;1570408;74;1944;-65
2023/08/05 09:08:09;;;;;;;;;;;22.60;53.90;;;;;;1568400;74;812;-66
2023/08/05 09:10:11;;;;;;;;;;;22.60;53.90;;;;;;1566578;74;754;-67
2023/08/05 09:12:14;;;;;;;;;;;22.60;53.90;;;;;;1573613;74;1562;-65
2023/08/05 09:14:16;;;;;;;;;;;22.60;53.70;;;;;;1581045;74;721;-66
2023/08/05 09:16:18;;;;;;;;;;;22.50;53.80;;;;;;1568393;74;776;-66
2023/08/05 09:18:20;;;;;;;;;;;22.60;53.70;;;;;;1560479;74;798;-65
2023/08/05 09:20:24;;;;;;;;;;;22.60;53.60;;;;;;1558756;74;770;-67
2023/08/05 09:22:25;;;;;;;;;;;22.60;53.50;;;;;;1578058;74;1601;-67
2023/08/05 09:24:27;;;;;;;;;;;22.50;53.40;;;;;;1580720;74;1136;-65
2023/08/05 09:26:29;;;;;;;;;;;22.60;53.40;;;;;;1576171;74;1936;-65
2023/08/05 09:28:31;;;;;;;;;;;22.60;53.40;;;;;;1572637;74;748;-66
2023/08/05 09:30:34;;;;;;;;;;;22.60;53.50;;;;;;1570243;74;629;-66
2023/08/05 09:32:38;;;;;;;;;;;22.60;53.50;;;;;;1578254;74;747;-68
2023/08/05 09:34:41;;;;;;;;;;;22.60;53.60;;;;;;1571406;74;1137;-66
2023/08/05 09:36:43;;;;;;;;;;;22.60;53.60;;;;;;1568299;74;809;-66
2023/08/05 09:38:47;;;;;;;;;;;22.60;53.50;;;;;;1578913;74;790;-68
2023/08/05 09:40:52;;;;;;;;;;;22.60;53.40;;;;;;1556153;74;1605;-67
2023/08/05 09:43:02;;;;;;;;;;;22.50;53.40;;;;;;1573349;74;1641;-67
2023/08/05 09:45:08;;;;;;;;;;;22.60;53.30;;;;;;1569957;74;1928;-66
2023/08/05 09:47:08;;;;;;;;;;;22.60;53.20;;;;;;1561417;74;1583;-66
2023/08/05 09:49:17;;;;;;;;;;;22.50;53.30;;;;;;1565379;74;763;-68
2023/08/05 09:51:16;;;;;;;;;;;22.60;53.30;;;;;;1569835;74;1105;-66
2023/08/05 09:53:19;;;;;;;;;;;22.60;53.30;;;;;;1575009;74;702;-67
2023/08/05 09:55:21;;;;;;;;;;;22.50;53.30;;;;;;1572561;74;1660;-67
2023/08/05 09:57:23;;;;;;;;;;;22.60;53.30;;;;;;1568727;74;732;-68
2023/08/05 09:59:25;;;;;;;;;;;22.60;53.30;;;;;;1579697;74;758;-67
2023/08/05 10:01:27;;;;;;;;;;;22.60;53.20;;;;;;1565528;74;735;-67
2023/08/05 10:03:29;;;;;;;;;;;22.50;53.00;;;;;;1571071;74;754;-67
2023/08/05 10:05:31;;;;;;;;;;;22.60;53.00;;;;;;1564548;74;1942;-67
2023/08/05 10:07:33;;;;;;;;;;;22.60;52.90;;;;;;1586815;74;746;-68
2023/08/05 10:09:35;;;;;;;;;;;22.60;52.90;;;;;;1575209;74;1491;-66
2023/08/05 10:11:37;;;;;;;;;;;22.50;52.90;;;;;;1570673;74;780;-67
2023/08/05 10:13:40;;;;;;;;;;;22.50;52.90;;;;;;1577596;74;734;-65
2023/08/05 10:15:42;;;;;;;;;;;22.50;53.00;;;;;;1559447;74;1568;-67
2023/08/05 10:17:44;;;;;;;;;;;22.50;53.00;;;;;;1579366;74;720;-67
2023/08/05 10:19:47;;;;;;;;;;;22.50;53.00;;;;;;1581898;74;721;-67
2023/08/05 10:21:49;;;;;;;;;;;22.50;53.10;;;;;;1567067;74;1520;-66
2023/08/05 10:23:53;;;;;;;;;;;22.60;53.10;;;;;;1574675;74;732;-67
2023/08/05 10:26:01;;;;;;;;;;;22.60;53.10;;;;;;1570649;74;1955;-68
2023/08/05 10:28:03;;;;;;;;;;;22.50;53.00;;;;;;1553565;74;712;-66
2023/08/05 10:30:07;;;;;;;;;;;22.60;52.80;;;;;;1569189;74;736;-67
2023/08/05 10:32:10;;;;;;;;;;;22.50;52.70;;;;;;1572032;74;1314;-67
2023/08/05 10:34:12;;;;;;;;;;;22.60;52.80;;;;;;1564485;74;1039;-68
2023/08/05 10:36:14;;;;;;;;;;;22.60;52.80;;;;;;1576884;74;1304;-65
2023/08/05 10:38:19;;;;;;;;;;;22.60;52.80;;;;;;1534168;76;1029;-68
2023/08/05 10:40:40;;;;;;;;;;;22.60;52.80;;;;;;1575513;74;770;-67
2023/08/05 10:42:41;;;;;;;;;;;22.60;52.90;;;;;;1580432;74;733;-66
2023/08/05 10:44:43;;;;;;;;;;;22.60;52.80;;;;;;1564533;75;1156;-68
2023/08/05 10:46:45;;;;;;;;;;;22.60;52.80;;;;;;1563613;74;1930;-67
2023/08/05 10:48:50;;;;;;;;;;;22.60;52.80;;;;;;1578106;74;742;-68
2023/08/05 10:50:52;;;;;;;;;;;22.60;52.80;;;;;;1561865;74;1302;-66
2023/08/05 10:52:54;;;;;;;;;;;22.60;52.80;;;;;;1567287;74;736;-67
2023/08/05 10:54:56;;;;;;;;;;;22.60;52.90;;;;;;1564414;74;1142;-67
2023/08/05 10:56:58;;;;;;;;;;;22.60;52.80;;;;;;1578348;74;676;-67
2023/08/05 10:59:03;;;;;;;;;;;22.60;52.50;;;;;;1569215;74;810;-67
2023/08/05 11:01:05;;;;;;;;;;;22.60;52.40;;;;;;1568433;74;774;-66
2023/08/05 11:03:25;;;;;;;;;;;22.70;52.40;;;;;;1572888;74;752;-66
2023/08/05 11:05:27;;;;;;;;;;;22.60;52.40;;;;;;1576505;74;1947;-67
2023/08/05 11:07:29;;;;;;;;;;;22.60;52.50;;;;;;1565977;74;712;-67
2023/08/05 11:09:33;;;;;;;;;;;22.60;52.40;;;;;;1536998;76;855;-67
2023/08/05 11:11:35;;;;;;;;;;;22.70;52.50;;;;;;1574872;74;792;-67
2023/08/05 11:13:38;;;;;;;;;;;22.60;52.30;;;;;;1572991;74;720;-66
2023/08/05 11:15:40;;;;;;;;;;;22.60;52.20;;;;;;1575105;74;1119;-67
2023/08/05 11:17:55;;;;;;;;;;;22.60;52.10;;;;;;1566651;74;779;-66
2023/08/05 11:19:58;;;;;;;;;;;22.70;52.10;;;;;;1564682;74;714;-65
2023/08/05 11:22:00;;;;;;;;;;;22.70;52.10;;;;;;1566587;74;722;-68
2023/08/05 11:24:02;;;;;;;;;;;22.60;51.80;;;;;;1565438;74;763;-66
2023/08/05 11:26:05;;;;;;;;;;;22.70;51.90;;;;;;1562727;74;1924;-66
2023/08/05 11:28:08;;;;;;;;;;;22.70;52.00;;;;;;1567251;74;804;-66
2023/08/05 11:30:13;;;;;;;;;;;22.60;51.90;;;;;;1567802;74;886;-67
2023/08/05 11:32:15;;;;;;;;;;;22.70;51.90;;;;;;1573723;74;1438;-68
2023/08/05 11:34:21;;;;;;;;;;;22.70;51.80;;;;;;1564261;74;740;-66
2023/08/05 11:36:24;;;;;;;;;;;22.70;51.80;;;;;;1569809;74;746;-68
2023/08/05 11:38:26;;;;;;;;;;;22.60;51.70;;;;;;1562256;74;707;-66
2023/08/05 11:40:28;;;;;;;;;;;22.70;51.70;;;;;;1539138;76;716;-67
2023/08/05 11:42:31;;;;;;;;;;;22.70;51.50;;;;;;1584585;73;758;-68
2023/08/05 11:44:33;;;;;;;;;;;22.70;51.50;;;;;;1547984;75;1096;-68
2023/08/05 11:46:34;;;;;;;;;;;22.60;51.40;;;;;;1567528;74;1912;-67
2023/08/05 11:48:36;;;;;;;;;;;22.70;51.60;;;;;;1553800;74;803;-68
2023/08/05 11:50:38;;;;;;;;;;;22.60;51.70;;;;;;1571641;74;745;-68
2023/08/05 11:52:40;;;;;;;;;;;22.60;51.80;;;;;;1558232;74;770;-66
2023/08/05 11:54:44;;;;;;;;;;;22.60;51.90;;;;;;1555874;74;1151;-67
2023/08/05 11:56:46;;;;;;;;;;;22.60;52.00;;;;;;1550439;74;832;-67
2023/08/05 11:58:48;;;;;;;;;;;22.60;51.90;;;;;;1559073;74;948;-68
2023/08/05 12:00:53;;;;;;;;;;;22.60;51.90;;;;;;1557129;74;1542;-66
2023/08/05 12:02:55;;;;;;;;;;;22.60;51.90;;;;;;1570144;74;744;-67
2023/08/05 12:04:57;;;;;;;;;;;22.70;52.00;;;;;;1563200;74;1194;-68
2023/08/05 12:06:59;;;;;;;;;;;22.60;51.90;;;;;;1555193;74;1909;-68
2023/08/05 12:09:01;;;;;;;;;;;22.70;52.10;;;;;;1561350;74;748;-66